createdAt,value
2022-11-07T00:01:03.442Z,101678.38
2022-11-07T00:02:07.516Z,101669.59
2022-11-07T00:03:10.976Z,101671.19
2022-11-07T00:04:13.306Z,101675.88
2022-11-07T00:05:16.603Z,101672.31
2022-11-07T00:06:18.926Z,101672.44
2022-11-07T00:07:23.636Z,101673.66
2022-11-07T00:08:32.095Z,101674.13
2022-11-07T00:09:35.580Z,101670.47
2022-11-07T00:10:37.827Z,101675.13
2022-11-07T00:11:41.154Z,101670.66
2022-11-07T00:12:43.752Z,101678.59
2022-11-07T00:13:47.141Z,101665.44
2022-11-07T00:14:49.600Z,101677.28
2022-11-07T00:15:52.991Z,101670.69
2022-11-07T00:16:55.282Z,101668.06
2022-11-07T00:17:59.513Z,101664.91
2022-11-07T00:19:01.873Z,101673.47
2022-11-07T00:20:05.815Z,101670.88
2022-11-07T00:21:10.005Z,101673.81
2022-11-07T00:22:13.403Z,101672.09
2022-11-07T00:23:17.510Z,101679.34
2022-11-07T00:24:20.919Z,101673.13
2022-11-07T00:25:24.275Z,101677.91
2022-11-07T00:26:26.543Z,101676.84
2022-11-07T00:27:30.035Z,101681.44
2022-11-07T00:28:34.290Z,101676.22
2022-11-07T00:29:37.605Z,101673.69
2022-11-07T00:30:39.932Z,101678.56
2022-11-07T00:31:43.215Z,101669.69
2022-11-07T00:32:45.561Z,101674.13
2022-11-07T00:33:49.131Z,101680.22
2022-11-07T00:34:52.509Z,101683.53
2022-11-07T00:35:54.702Z,101683.91
2022-11-07T00:36:58.072Z,101686.00
2022-11-07T00:38:00.717Z,101688.50
2022-11-07T00:39:06.817Z,101688.09
2022-11-07T00:40:10.461Z,101690.28
2022-11-07T00:41:14.316Z,101692.31
2022-11-07T00:42:17.713Z,101684.53
2022-11-07T00:43:20.021Z,101686.75
2022-11-07T00:44:23.642Z,101685.63
2022-11-07T00:45:25.751Z,101684.41
2022-11-07T00:46:29.134Z,101682.13
2022-11-07T00:47:32.622Z,101689.16
2022-11-07T00:48:35.610Z,101681.97
2022-11-07T00:49:38.937Z,101684.59
2022-11-07T00:50:41.349Z,101680.16
2022-11-07T00:51:44.542Z,101684.91
2022-11-07T00:52:46.933Z,101684.47
2022-11-07T00:53:50.845Z,101684.75
2022-11-07T00:54:54.542Z,101681.69
2022-11-07T00:56:02.417Z,101680.22
2022-11-07T00:57:04.676Z,101681.16
2022-11-07T00:58:12.689Z,101686.81
2022-11-07T00:59:17.240Z,101687.47
2022-11-07T01:00:19.556Z,101689.06
2022-11-07T01:01:25.675Z,101688.81
2022-11-07T01:02:28.245Z,101696.28
2022-11-07T01:03:49.014Z,101692.41
2022-11-07T01:05:10.282Z,101690.81
2022-11-07T01:06:14.163Z,101687.56
2022-11-07T01:07:16.528Z,101691.53
2022-11-07T01:08:19.914Z,101694.03
2022-11-07T01:09:24.067Z,101703.41
2022-11-07T01:10:27.837Z,101692.06
2022-11-07T01:11:31.758Z,101695.31
2022-11-07T01:12:35.146Z,101697.31
2022-11-07T01:13:37.542Z,101700.25
2022-11-07T01:14:40.944Z,101700.72
2022-11-07T01:15:43.139Z,101693.63
2022-11-07T01:16:47.673Z,101696.41
2022-11-07T01:17:49.943Z,101698.91
2022-11-07T01:18:53.707Z,101693.22
2022-11-07T01:19:55.923Z,101695.44
2022-11-07T01:20:59.172Z,101697.84
2022-11-07T01:22:02.561Z,101693.88
2022-11-07T01:23:04.967Z,101690.66
2022-11-07T01:24:11.176Z,101692.56
2022-11-07T01:25:13.479Z,101695.47
2022-11-07T01:26:19.219Z,101694.66
2022-11-07T01:27:22.344Z,101691.03
2022-11-07T01:28:24.754Z,101695.13
2022-11-07T01:29:28.090Z,101692.56
2022-11-07T01:30:30.300Z,101684.38
2022-11-07T01:31:33.586Z,101693.94
2022-11-07T01:32:35.834Z,101693.16
2022-11-07T01:33:40.257Z,101686.38
2022-11-07T01:34:42.571Z,101694.25
2022-11-07T01:35:45.902Z,101693.22
2022-11-07T01:36:48.216Z,101692.56
2022-11-07T01:37:51.503Z,101689.53
2022-11-07T01:38:53.960Z,101692.13
2022-11-07T01:39:57.293Z,101691.00
2022-11-07T01:41:18.150Z,101684.03
2022-11-07T01:42:23.735Z,101684.63
2022-11-07T01:43:42.123Z,101689.66
2022-11-07T01:44:54.674Z,101683.28
2022-11-07T01:45:57.108Z,101686.22
2022-11-07T01:47:02.109Z,101689.47
2022-11-07T01:48:04.782Z,101694.28
2022-11-07T01:49:12.516Z,101692.09
2022-11-07T01:50:15.024Z,101702.63
2022-11-07T01:51:19.763Z,101698.84
2022-11-07T01:52:25.639Z,101702.16
2022-11-07T01:53:29.080Z,101697.22
2022-11-07T01:54:34.212Z,101696.72
2022-11-07T01:55:37.995Z,101687.72
2022-11-07T01:56:43.238Z,101686.22
2022-11-07T01:57:51.586Z,101690.84
2022-11-07T01:58:56.106Z,101691.63
2022-11-07T02:00:03.228Z,101694.84
2022-11-07T02:01:06.001Z,101690.50
2022-11-07T02:02:11.307Z,101700.31
2022-11-07T02:03:17.691Z,101693.13
2022-11-07T02:04:24.227Z,101690.69
2022-11-07T02:05:31.776Z,101686.72
2022-11-07T02:06:43.337Z,101688.19
2022-11-07T02:07:46.470Z,101685.31
2022-11-07T02:08:51.965Z,101689.66
2022-11-07T02:09:54.795Z,101682.69
2022-11-07T02:11:00.625Z,101687.94
2022-11-07T02:12:03.812Z,101685.22
2022-11-07T02:13:09.259Z,101682.69
2022-11-07T02:14:16.262Z,101686.13
2022-11-07T02:15:19.010Z,101685.59
2022-11-07T02:16:22.624Z,101689.88
2022-11-07T02:17:24.936Z,101688.94
2022-11-07T02:18:29.501Z,101694.50
2022-11-07T02:19:36.367Z,101688.19
2022-11-07T02:20:39.764Z,101687.00
2022-11-07T02:21:49.506Z,101688.44
2022-11-07T02:22:57.196Z,101686.53
2022-11-07T02:24:06.918Z,101686.63
2022-11-07T02:25:14.291Z,101685.09
2022-11-07T02:26:16.665Z,101677.41
2022-11-07T02:27:22.289Z,101687.94
2022-11-07T02:28:28.094Z,101689.47
2022-11-07T02:29:33.739Z,101688.91
2022-11-07T02:30:35.990Z,101683.59
2022-11-07T02:31:39.380Z,101682.38
2022-11-07T02:32:41.636Z,101680.03
2022-11-07T02:33:45.014Z,101676.50
2022-11-07T02:34:56.307Z,101678.09
2022-11-07T02:35:59.603Z,101673.13
2022-11-07T02:37:06.304Z,101679.03
2022-11-07T02:38:15.474Z,101680.16
2022-11-07T02:39:18.842Z,101673.44
2022-11-07T02:40:23.783Z,101682.06
2022-11-07T02:41:29.461Z,101682.75
2022-11-07T02:42:43.673Z,101675.03
2022-11-07T02:43:51.086Z,101680.31
2022-11-07T02:44:56.059Z,101674.66
2022-11-07T02:46:01.792Z,101677.59
2022-11-07T02:47:04.213Z,101674.97
2022-11-07T02:48:07.844Z,101675.69
2022-11-07T02:49:10.204Z,101679.75
2022-11-07T02:50:15.946Z,101678.13
2022-11-07T02:51:19.435Z,101670.34
2022-11-07T02:52:21.648Z,101675.91
2022-11-07T02:53:25.073Z,101671.75
2022-11-07T02:54:27.346Z,101674.16
2022-11-07T02:55:32.066Z,101675.84
2022-11-07T02:56:35.442Z,101666.34
2022-11-07T02:57:37.729Z,101670.94
2022-11-07T02:58:41.602Z,101672.00
2022-11-07T02:59:43.904Z,101673.69
2022-11-07T03:00:47.191Z,101668.56
2022-11-07T03:01:49.513Z,101667.94
2022-11-07T03:02:53.041Z,101662.44
2022-11-07T03:03:56.590Z,101663.31
2022-11-07T03:04:58.964Z,101665.28
2022-11-07T03:06:02.503Z,101661.81
2022-11-07T03:07:04.802Z,101655.16
2022-11-07T03:08:08.085Z,101660.03
2022-11-07T03:09:10.293Z,101660.03
2022-11-07T03:10:14.393Z,101665.25
2022-11-07T03:11:20.104Z,101662.53
2022-11-07T03:12:23.688Z,101657.97
2022-11-07T03:13:25.977Z,101665.25
2022-11-07T03:14:29.348Z,101660.69
2022-11-07T03:15:31.634Z,101666.34
2022-11-07T03:16:34.909Z,101670.25
2022-11-07T03:17:37.169Z,101673.53
2022-11-07T03:18:40.469Z,101663.16
2022-11-07T03:19:42.928Z,101669.38
2022-11-07T03:20:46.509Z,101661.47
2022-11-07T03:21:50.966Z,101668.91
2022-11-07T03:22:54.300Z,101662.13
2022-11-07T03:23:56.527Z,101666.34
2022-11-07T03:24:59.907Z,101667.84
2022-11-07T03:26:02.219Z,101665.78
2022-11-07T03:27:06.936Z,101662.84
2022-11-07T03:28:09.298Z,101663.53
2022-11-07T03:29:12.589Z,101663.38
2022-11-07T03:30:15.353Z,101662.34
2022-11-07T03:31:18.749Z,101657.78
2022-11-07T03:32:22.889Z,101662.44
2022-11-07T03:33:26.339Z,101657.66
2022-11-07T03:34:28.692Z,101664.41
2022-11-07T03:35:31.974Z,101659.78
2022-11-07T03:36:34.542Z,101660.00
2022-11-07T03:37:37.842Z,101659.22
2022-11-07T03:38:41.057Z,101665.31
2022-11-07T03:39:43.369Z,101657.34
2022-11-07T03:40:47.534Z,101671.91
2022-11-07T03:41:49.900Z,101663.97
2022-11-07T03:42:54.612Z,101668.06
2022-11-07T03:43:56.975Z,101664.16
2022-11-07T03:45:00.459Z,101664.97
2022-11-07T03:46:02.733Z,101662.19
2022-11-07T03:47:06.104Z,101663.06
2022-11-07T03:48:09.392Z,101662.34
2022-11-07T03:49:11.597Z,101661.53
2022-11-07T03:50:16.849Z,101664.34
2022-11-07T03:51:19.098Z,101659.31
2022-11-07T03:52:22.733Z,101666.09
2022-11-07T03:53:26.242Z,101670.25
2022-11-07T03:54:30.019Z,101668.50
2022-11-07T03:55:32.275Z,101665.47
2022-11-07T03:56:35.611Z,101662.75
2022-11-07T03:57:38.169Z,101672.00
2022-11-07T03:58:42.981Z,101656.69
2022-11-07T03:59:45.253Z,101657.00
2022-11-07T04:00:48.689Z,101664.41
2022-11-07T04:01:51.108Z,101661.63
2022-11-07T04:02:54.469Z,101662.44
2022-11-07T04:03:56.758Z,101664.84
2022-11-07T04:05:00.083Z,101654.63
2022-11-07T04:06:02.287Z,101654.72
2022-11-07T04:07:05.575Z,101654.28
2022-11-07T04:08:07.974Z,101655.41
2022-11-07T04:09:11.426Z,101655.88
2022-11-07T04:10:13.734Z,101654.94
2022-11-07T04:11:30.749Z,101652.41
2022-11-07T04:13:03.059Z,101652.94
2022-11-07T04:14:24.977Z,101658.13
2022-11-07T04:15:45.928Z,101653.81
2022-11-07T04:17:06.664Z,101660.84
2022-11-07T04:18:10.016Z,101657.09
2022-11-07T04:19:12.229Z,101656.69
2022-11-07T04:20:15.542Z,101655.41
2022-11-07T04:21:17.749Z,101656.69
2022-11-07T04:22:20.997Z,101661.13
2022-11-07T04:23:23.343Z,101656.59
2022-11-07T04:24:26.632Z,101644.59
2022-11-07T04:25:47.472Z,101650.88
2022-11-07T04:27:08.279Z,101661.72
2022-11-07T04:28:11.917Z,101655.44
2022-11-07T04:29:15.544Z,101652.84
2022-11-07T04:30:24.981Z,101657.25
2022-11-07T04:31:27.244Z,101654.44
2022-11-07T04:32:30.632Z,101653.97
2022-11-07T04:33:32.983Z,101654.38
2022-11-07T04:34:36.323Z,101663.38
2022-11-07T04:35:38.587Z,101655.34
2022-11-07T04:36:41.905Z,101652.72
2022-11-07T04:37:45.778Z,101658.78
2022-11-07T04:38:49.005Z,101657.25
2022-11-07T04:39:51.305Z,101663.88
2022-11-07T04:40:55.788Z,101658.50
2022-11-07T04:41:58.016Z,101660.84
2022-11-07T04:43:01.263Z,101657.78
2022-11-07T04:44:03.571Z,101661.47
2022-11-07T04:45:10.036Z,101660.44
2022-11-07T04:46:12.393Z,101655.81
2022-11-07T04:47:15.840Z,101661.94
2022-11-07T04:48:18.250Z,101665.28
2022-11-07T04:49:21.619Z,101660.53
2022-11-07T04:50:23.879Z,101659.72
2022-11-07T04:51:27.183Z,101659.81
2022-11-07T04:52:29.644Z,101658.50
2022-11-07T04:53:33.123Z,101659.38
2022-11-07T04:54:35.591Z,101664.34
2022-11-07T04:55:38.982Z,101666.59
2022-11-07T04:56:41.739Z,101663.84
2022-11-07T04:57:45.138Z,101664.56
2022-11-07T04:58:47.398Z,101659.50
2022-11-07T04:59:50.664Z,101662.91
2022-11-07T05:00:55.390Z,101667.06
2022-11-07T05:01:57.768Z,101668.09
2022-11-07T05:03:01.323Z,101670.25
2022-11-07T05:04:04.202Z,101669.00
2022-11-07T05:05:08.796Z,101671.34
2022-11-07T05:06:14.934Z,101671.44
2022-11-07T05:07:18.576Z,101664.34
2022-11-07T05:08:21.136Z,101667.47
2022-11-07T05:09:24.810Z,101666.50
2022-11-07T05:10:29.196Z,101675.41
2022-11-07T05:11:32.458Z,101665.06
2022-11-07T05:12:34.624Z,101667.47
2022-11-07T05:13:37.817Z,101670.13
2022-11-07T05:14:39.911Z,101671.72
2022-11-07T05:15:43.122Z,101668.91
2022-11-07T05:16:46.881Z,101668.06
2022-11-07T05:17:50.249Z,101659.63
2022-11-07T05:18:52.535Z,101661.19
2022-11-07T05:19:55.937Z,101660.75
2022-11-07T05:20:58.248Z,101657.63
2022-11-07T05:22:18.935Z,101666.81
2022-11-07T05:23:22.329Z,101666.31
2022-11-07T05:24:24.590Z,101661.09
2022-11-07T05:25:27.864Z,101673.44
2022-11-07T05:26:31.057Z,101666.03
2022-11-07T05:27:33.465Z,101656.63
2022-11-07T05:28:39.472Z,101659.88
2022-11-07T05:29:42.153Z,101662.75
2022-11-07T05:30:46.829Z,101663.44
2022-11-07T05:31:51.702Z,101661.19
2022-11-07T05:32:53.981Z,101659.88
2022-11-07T05:33:57.363Z,101661.72
2022-11-07T05:34:59.613Z,101655.72
2022-11-07T05:36:13.802Z,101659.22
2022-11-07T05:37:15.962Z,101661.84
2022-11-07T05:38:19.285Z,101666.09
2022-11-07T05:39:21.503Z,101660.69
2022-11-07T05:40:24.786Z,101658.84
2022-11-07T05:41:26.997Z,101662.22
2022-11-07T05:42:30.554Z,101663.16
2022-11-07T05:43:34.177Z,101656.16
2022-11-07T05:44:36.854Z,101664.50
2022-11-07T05:45:41.276Z,101657.75
2022-11-07T05:46:43.413Z,101663.47
2022-11-07T05:47:48.266Z,101662.34
2022-11-07T05:48:55.413Z,101664.28
2022-11-07T05:50:00.132Z,101663.78
2022-11-07T05:51:04.236Z,101661.47
2022-11-07T05:52:06.408Z,101661.63
2022-11-07T05:53:09.689Z,101662.44
2022-11-07T05:54:11.903Z,101656.66
2022-11-07T05:55:15.149Z,101661.16
2022-11-07T05:56:17.240Z,101662.56
2022-11-07T05:57:20.410Z,101659.53
2022-11-07T05:58:23.078Z,101658.69
2022-11-07T05:59:26.662Z,101658.38
2022-11-07T06:00:28.747Z,101655.47
2022-11-07T06:01:32.135Z,101653.47
2022-11-07T06:02:34.489Z,101658.28
2022-11-07T06:03:39.169Z,101661.66
2022-11-07T06:04:41.554Z,101656.41
2022-11-07T06:05:44.891Z,101659.03
2022-11-07T06:06:47.252Z,101652.22
2022-11-07T06:07:50.434Z,101647.19
2022-11-07T06:08:52.639Z,101653.38
2022-11-07T06:09:55.872Z,101653.47
2022-11-07T06:10:59.045Z,101643.19
2022-11-07T06:12:03.893Z,101641.72
2022-11-07T06:13:08.583Z,101648.47
2022-11-07T06:14:11.912Z,101646.66
2022-11-07T06:15:14.253Z,101646.97
2022-11-07T06:16:17.509Z,101644.81
2022-11-07T06:17:19.832Z,101645.84
2022-11-07T06:18:23.147Z,101652.63
2022-11-07T06:19:26.840Z,101645.94
2022-11-07T06:20:30.858Z,101650.00
2022-11-07T06:21:34.365Z,101647.28
2022-11-07T06:22:36.657Z,101646.56
2022-11-07T06:23:39.835Z,101654.59
2022-11-07T06:24:42.040Z,101651.91
2022-11-07T06:25:45.424Z,101653.88
2022-11-07T06:26:47.786Z,101654.16
2022-11-07T06:27:51.071Z,101657.88
2022-11-07T06:28:54.510Z,101658.91
2022-11-07T06:29:56.805Z,101653.63
2022-11-07T06:31:01.380Z,101656.16
2022-11-07T06:32:03.734Z,101653.34
2022-11-07T06:33:08.643Z,101660.00
2022-11-07T06:34:10.879Z,101656.41
2022-11-07T06:35:15.483Z,101656.47
2022-11-07T06:36:18.318Z,101662.97
2022-11-07T06:37:21.740Z,101662.75
2022-11-07T06:38:25.060Z,101658.59
2022-11-07T06:39:28.420Z,101665.47
2022-11-07T06:40:32.079Z,101657.78
2022-11-07T06:41:35.305Z,101664.41
2022-11-07T06:42:38.067Z,101667.78
2022-11-07T06:43:41.556Z,101668.19
2022-11-07T06:44:43.933Z,101663.69
2022-11-07T06:45:48.554Z,101664.00
2022-11-07T06:46:51.858Z,101665.47
2022-11-07T06:47:55.666Z,101661.22
2022-11-07T06:48:59.048Z,101662.97
2022-11-07T06:50:01.303Z,101670.88
2022-11-07T06:51:07.774Z,101664.03
2022-11-07T06:52:09.927Z,101670.47
2022-11-07T06:53:15.009Z,101667.69
2022-11-07T06:54:17.723Z,101671.69
2022-11-07T06:55:22.352Z,101668.59
2022-11-07T06:56:24.959Z,101672.72
2022-11-07T06:57:28.219Z,101674.16
2022-11-07T06:58:30.792Z,101668.66
2022-11-07T06:59:34.036Z,101668.66
2022-11-07T07:00:37.394Z,101668.19
2022-11-07T07:01:41.238Z,101669.00
2022-11-07T07:02:57.991Z,101671.53
2022-11-07T07:04:01.939Z,101669.78
2022-11-07T07:05:04.481Z,101671.44
2022-11-07T07:06:13.708Z,101670.09
2022-11-07T07:07:16.025Z,101673.66
2022-11-07T07:08:19.428Z,101677.03
2022-11-07T07:09:21.813Z,101675.69
2022-11-07T07:10:26.457Z,101673.13
2022-11-07T07:11:29.815Z,101679.50
2022-11-07T07:12:32.088Z,101678.88
2022-11-07T07:13:35.418Z,101682.53
2022-11-07T07:14:37.533Z,101682.13
2022-11-07T07:15:51.141Z,101676.47
2022-11-07T07:16:53.952Z,101684.94
2022-11-07T07:18:01.112Z,101683.78
2022-11-07T07:19:04.435Z,101687.84
2022-11-07T07:20:07.715Z,101677.06
2022-11-07T07:21:14.578Z,101682.63
2022-11-07T07:22:16.907Z,101684.31
2022-11-07T07:23:21.591Z,101689.81
2022-11-07T07:24:24.995Z,101689.25
2022-11-07T07:25:27.550Z,101688.59
2022-11-07T07:26:30.953Z,101694.66
2022-11-07T07:27:33.194Z,101690.56
2022-11-07T07:28:37.386Z,101691.66
2022-11-07T07:29:39.668Z,101688.22
2022-11-07T07:30:45.969Z,101687.97
2022-11-07T07:31:53.912Z,101688.66
2022-11-07T07:32:56.178Z,101692.31
2022-11-07T07:34:00.036Z,101697.34
2022-11-07T07:35:02.592Z,101693.41
2022-11-07T07:36:06.687Z,101695.38
2022-11-07T07:37:10.908Z,101703.13
2022-11-07T07:38:14.482Z,101704.16
2022-11-07T07:39:16.607Z,101691.69
2022-11-07T07:40:20.511Z,101698.53
2022-11-07T07:41:23.982Z,101705.13
2022-11-07T07:42:26.300Z,101709.91
2022-11-07T07:43:30.816Z,101707.63
2022-11-07T07:44:34.650Z,101713.72
2022-11-07T07:45:37.882Z,101707.47
2022-11-07T07:46:41.176Z,101712.75
2022-11-07T07:47:43.374Z,101712.75
2022-11-07T07:48:46.727Z,101712.53
2022-11-07T07:49:48.914Z,101720.56
2022-11-07T07:50:52.228Z,101715.84
2022-11-07T07:51:54.430Z,101720.38
2022-11-07T07:53:00.693Z,101722.09
2022-11-07T07:54:06.154Z,101729.00
2022-11-07T07:55:11.657Z,101725.38
2022-11-07T07:56:15.236Z,101726.47
2022-11-07T07:57:18.413Z,101725.84
2022-11-07T07:58:21.694Z,101723.25
2022-11-07T07:59:24.986Z,101733.16
2022-11-07T08:00:28.321Z,101726.19
2022-11-07T08:01:32.014Z,101731.16
2022-11-07T08:02:34.376Z,101727.50
2022-11-07T08:03:59.733Z,101733.75
2022-11-07T08:05:01.966Z,101731.50
2022-11-07T08:06:06.051Z,101725.97
2022-11-07T08:07:08.247Z,101737.16
2022-11-07T08:08:12.952Z,101737.16
2022-11-07T08:09:15.060Z,101736.66
2022-11-07T08:10:40.890Z,101745.47
2022-11-07T08:11:42.883Z,101740.03
2022-11-07T08:12:45.747Z,101740.34
2022-11-07T08:13:48.891Z,101742.97
2022-11-07T08:14:52.031Z,101741.69
2022-11-07T08:15:54.317Z,101736.31
2022-11-07T08:16:57.533Z,101739.56
2022-11-07T08:18:02.407Z,101742.22
2022-11-07T08:19:05.599Z,101744.09
2022-11-07T08:20:09.892Z,101749.91
2022-11-07T08:21:13.247Z,101746.75
2022-11-07T08:22:15.606Z,101746.78
2022-11-07T08:23:20.586Z,101751.25
2022-11-07T08:24:24.223Z,101748.09
2022-11-07T08:25:26.649Z,101746.19
2022-11-07T08:26:30.027Z,101748.03
2022-11-07T08:27:32.655Z,101750.13
2022-11-07T08:28:37.087Z,101746.13
2022-11-07T08:29:40.638Z,101754.03
2022-11-07T08:30:43.109Z,101754.81
2022-11-07T08:31:46.451Z,101747.84
2022-11-07T08:32:48.727Z,101746.22
2022-11-07T08:33:52.124Z,101749.88
2022-11-07T08:34:54.480Z,101741.88
2022-11-07T08:36:00.559Z,101748.78
2022-11-07T08:37:03.869Z,101747.69
2022-11-07T08:38:07.026Z,101758.06
2022-11-07T08:39:11.906Z,101754.63
2022-11-07T08:40:14.359Z,101760.03
2022-11-07T08:41:22.000Z,101757.63
2022-11-07T08:42:24.752Z,101762.72
2022-11-07T08:43:28.409Z,101759.84
2022-11-07T08:44:32.628Z,101760.13
2022-11-07T08:45:36.049Z,101755.66
2022-11-07T08:46:38.313Z,101762.28
2022-11-07T08:47:42.080Z,101754.88
2022-11-07T08:48:45.386Z,101759.13
2022-11-07T08:49:47.596Z,101758.09
2022-11-07T08:50:54.155Z,101755.94
2022-11-07T08:51:57.543Z,101749.88
2022-11-07T08:53:03.135Z,101758.63
2022-11-07T08:54:06.905Z,101759.94
2022-11-07T08:55:11.079Z,101761.53
2022-11-07T08:56:14.494Z,101759.47
2022-11-07T08:57:16.606Z,101767.13
2022-11-07T08:58:22.641Z,101758.09
2022-11-07T08:59:29.420Z,101763.38
2022-11-07T09:00:32.254Z,101762.50
2022-11-07T09:01:49.673Z,101755.09
2022-11-07T09:03:43.572Z,101764.03
2022-11-07T09:04:26.271Z,101758.78
2022-11-07T09:05:29.772Z,101762.03
2022-11-07T09:06:33.602Z,101764.97
2022-11-07T09:07:38.467Z,101757.66
2022-11-07T09:08:42.011Z,101757.59
2022-11-07T09:09:45.237Z,101754.41
2022-11-07T09:10:49.947Z,101758.06
2022-11-07T09:11:53.094Z,101758.91
2022-11-07T09:12:55.212Z,101756.81
2022-11-07T09:13:58.427Z,101755.41
2022-11-07T09:15:00.619Z,101754.78
2022-11-07T09:16:05.756Z,101751.38
2022-11-07T09:17:08.930Z,101753.25
2022-11-07T09:18:11.082Z,101751.34
2022-11-07T09:19:14.310Z,101753.44
2022-11-07T09:20:17.742Z,101747.84
2022-11-07T09:21:22.873Z,101753.44
2022-11-07T09:22:25.470Z,101754.44
2022-11-07T09:23:29.383Z,101754.47
2022-11-07T09:24:32.765Z,101750.53
2022-11-07T09:25:34.986Z,101755.63
2022-11-07T09:26:39.604Z,101756.69
2022-11-07T09:27:41.971Z,101757.72
2022-11-07T09:28:49.980Z,101757.31
2022-11-07T09:29:55.028Z,101759.94
2022-11-07T09:30:58.339Z,101750.34
2022-11-07T09:32:17.227Z,101758.28
2022-11-07T09:33:25.423Z,101753.47
2022-11-07T09:34:27.905Z,101757.75
2022-11-07T09:35:31.615Z,101754.84
2022-11-07T09:36:35.111Z,101757.53
2022-11-07T09:37:38.292Z,101755.81
2022-11-07T09:38:41.526Z,101749.44
2022-11-07T09:39:45.330Z,101759.53
2022-11-07T09:40:54.512Z,101753.19
2022-11-07T09:42:07.211Z,101757.88
2022-11-07T09:43:26.884Z,101760.47
2022-11-07T09:44:46.394Z,101754.63
2022-11-07T09:45:56.288Z,101749.84
2022-11-07T09:47:03.096Z,101751.59
2022-11-07T09:48:12.692Z,101750.75
2022-11-07T09:49:20.060Z,101755.94
2022-11-07T09:50:30.833Z,101748.50
2022-11-07T09:51:36.805Z,101754.84
2022-11-07T09:52:45.164Z,101744.00
2022-11-07T09:53:56.905Z,101745.06
2022-11-07T09:55:05.119Z,101742.16
2022-11-07T09:56:12.012Z,101739.72
2022-11-07T09:57:19.738Z,101743.81
2022-11-07T09:58:27.778Z,101749.13
2022-11-07T09:59:38.190Z,101742.38
2022-11-07T10:00:41.862Z,101737.88
2022-11-07T10:01:44.303Z,101749.34
2022-11-07T10:02:49.889Z,101744.34
2022-11-07T10:04:22.836Z,101746.19
2022-11-07T10:05:19.919Z,101744.53
2022-11-07T10:06:25.427Z,101747.19
2022-11-07T10:07:40.455Z,101744.00
2022-11-07T10:08:50.975Z,101753.06
2022-11-07T10:10:02.724Z,101749.34
2022-11-07T10:11:13.256Z,101742.13
2022-11-07T10:12:30.881Z,101736.47
2022-11-07T10:13:54.906Z,101745.00
2022-11-07T10:15:04.812Z,101740.28
2022-11-07T10:16:14.298Z,101740.97
2022-11-07T10:17:28.473Z,101741.38
2022-11-07T10:18:44.848Z,101741.81
2022-11-07T10:20:02.003Z,101743.41
2022-11-07T10:21:36.560Z,101735.66
2022-11-07T10:22:50.247Z,101735.81
2022-11-07T10:24:20.396Z,101737.72
2022-11-07T10:25:30.161Z,101736.50
2022-11-07T10:26:33.021Z,101729.50
2022-11-07T10:27:40.020Z,101732.97
2022-11-07T10:28:46.635Z,101736.09
2022-11-07T10:29:53.870Z,101732.19
2022-11-07T10:31:00.266Z,101733.44
2022-11-07T10:32:16.654Z,101731.56
2022-11-07T10:33:38.550Z,101729.75
2022-11-07T10:34:50.206Z,101730.34
2022-11-07T10:36:03.272Z,101729.69
2022-11-07T10:37:05.689Z,101730.28
2022-11-07T10:38:19.580Z,101726.59
2022-11-07T10:39:22.970Z,101730.53
2022-11-07T10:40:28.705Z,101727.63
2022-11-07T10:41:34.575Z,101727.91
2022-11-07T10:42:39.396Z,101724.78
2022-11-07T10:43:44.975Z,101720.03
2022-11-07T10:44:49.748Z,101728.22
2022-11-07T10:45:54.281Z,101726.06
2022-11-07T10:46:57.598Z,101725.00
2022-11-07T10:48:02.586Z,101728.38
2022-11-07T10:49:19.240Z,101723.81
2022-11-07T10:50:23.803Z,101717.44
2022-11-07T10:51:37.991Z,101719.56
2022-11-07T10:52:44.264Z,101717.78
2022-11-07T10:53:47.838Z,101715.16
2022-11-07T10:54:51.163Z,101719.72
2022-11-07T10:55:56.400Z,101709.94
2022-11-07T10:57:05.574Z,101716.91
2022-11-07T10:58:09.307Z,101716.13
2022-11-07T10:59:14.085Z,101713.47
2022-11-07T11:00:26.536Z,101716.91
2022-11-07T11:01:30.168Z,101706.56
2022-11-07T11:02:46.055Z,101713.97
2022-11-07T11:03:49.908Z,101711.06
2022-11-07T11:04:54.532Z,101711.53
2022-11-07T11:05:58.038Z,101703.31
2022-11-07T11:07:03.418Z,101703.88
2022-11-07T11:08:16.356Z,101706.78
2022-11-07T11:09:20.106Z,101708.41
2022-11-07T11:10:24.900Z,101706.06
2022-11-07T11:11:31.998Z,101704.16
2022-11-07T11:12:35.030Z,101706.88
2022-11-07T11:13:39.675Z,101701.84
2022-11-07T11:14:42.992Z,101701.25
2022-11-07T11:15:46.025Z,101698.84
2022-11-07T11:16:54.738Z,101693.78
2022-11-07T11:18:02.012Z,101692.47
2022-11-07T11:19:05.297Z,101690.38
2022-11-07T11:20:29.679Z,101685.59
2022-11-07T11:21:43.631Z,101688.53
2022-11-07T11:22:46.891Z,101687.97
2022-11-07T11:23:49.895Z,101691.88
2022-11-07T11:25:18.510Z,101688.25
2022-11-07T11:26:30.444Z,101682.84
2022-11-07T11:27:36.585Z,101687.66
2022-11-07T11:28:44.011Z,101677.00
2022-11-07T11:29:55.651Z,101675.66
2022-11-07T11:31:03.032Z,101675.81
2022-11-07T11:32:07.033Z,101681.91
2022-11-07T11:33:17.876Z,101677.63
2022-11-07T11:34:26.700Z,101677.72
2022-11-07T11:35:41.583Z,101672.09
2022-11-07T11:36:52.622Z,101681.31
2022-11-07T11:38:04.249Z,101660.06
2022-11-07T11:39:26.541Z,101671.66
2022-11-07T11:40:33.089Z,101664.06
2022-11-07T11:41:45.906Z,101653.41
2022-11-07T11:42:53.672Z,101659.16
2022-11-07T11:44:04.528Z,101658.91
2022-11-07T11:45:17.680Z,101658.22
2022-11-07T11:46:29.620Z,101659.88
2022-11-07T11:47:37.391Z,101662.00
2022-11-07T11:48:45.641Z,101645.75
2022-11-07T11:49:53.702Z,101650.25
2022-11-07T11:51:00.705Z,101649.66
2022-11-07T11:52:11.152Z,101649.03
2022-11-07T11:53:19.090Z,101647.56
2022-11-07T11:54:22.680Z,101643.09
2022-11-07T11:55:28.870Z,101652.13
2022-11-07T11:56:45.429Z,101648.84
2022-11-07T11:57:55.071Z,101643.25
2022-11-07T11:59:37.114Z,101636.47
2022-11-07T12:00:48.125Z,101630.16
2022-11-07T12:02:00.925Z,101630.59
2022-11-07T12:03:31.399Z,101629.53
2022-11-07T12:04:52.345Z,101624.81
2022-11-07T12:06:17.695Z,101621.59
2022-11-07T12:07:36.506Z,101622.47
2022-11-07T12:08:58.059Z,101625.78
2022-11-07T12:10:05.430Z,101627.16
2022-11-07T12:11:20.495Z,101622.41
2022-11-07T12:12:32.302Z,101619.19
2022-11-07T12:13:48.214Z,101614.09
2022-11-07T12:15:31.674Z,101609.38
2022-11-07T12:16:40.670Z,101612.28
2022-11-07T12:17:48.537Z,101614.59
2022-11-07T12:18:59.413Z,101613.34
2022-11-07T12:20:12.494Z,101612.88
2022-11-07T12:21:26.867Z,101609.59
2022-11-07T12:22:44.933Z,101605.91
2022-11-07T12:24:08.037Z,101610.25
2022-11-07T12:25:18.828Z,101601.91
2022-11-07T12:26:27.159Z,101603.38
2022-11-07T12:27:36.636Z,101597.06
2022-11-07T12:28:47.403Z,101602.09
2022-11-07T12:30:04.175Z,101601.44